sensor_id;sensor_type;location;lat;lon;timestamp;temperature;humidity
15105;DHT22;7653;48.994;9.212;2023-08-06T00:02:23;15.60;99.90
15105;DHT22;7653;48.994;9.212;2023-08-06T00:04:49;15.60;99.90
15105;DHT22;7653;48.994;9.212;2023-08-06T00:07:15;15.70;99.90
15105;DHT22;7653;48.994;9.212;2023-08-06T00:09:40;15.60;99.90
15105;DHT22;7653;48.994;9.212;2023-08-06T00:12:06;15.50;99.90
15105;DHT22;7653;48.994;9.212;2023-08-06T00:14:32;15.40;99.90
15105;DHT22;7653;48.994;9.212;2023-08-06T00:16:57;15.40;99.90
15105;DHT22;7653;48.994;9.212;2023-08-06T00:19:23;15.40;99.90
15105;DHT22;7653;48.994;9.212;2023-08-06T00:21:49;15.30;99.90
15105;DHT22;7653;48.994;9.212;2023-08-06T00:24:14;15.30;99.90
15105;DHT22;7653;48.994;9.212;2023-08-06T00:26:40;15.20;99.90
15105;DHT22;7653;48.994;9.212;2023-08-06T00:29:05;15.20;99.90
15105;DHT22;7653;48.994;9.212;2023-08-06T00:31:31;15.10;99.90
15105;DHT22;7653;48.994;9.212;2023-08-06T00:33:57;15.10;99.90
15105;DHT22;7653;48.994;9.212;2023-08-06T00:36:22;15.10;99.90
15105;DHT22;7653;48.994;9.212;2023-08-06T00:38:48;15.10;99.90
15105;DHT22;7653;48.994;9.212;2023-08-06T00:41:14;15.20;99.90
15105;DHT22;7653;48.994;9.212;2023-08-06T00:43:39;15.10;99.90
15105;DHT22;7653;48.994;9.212;2023-08-06T00:46:05;15.10;99.90
15105;DHT22;7653;48.994;9.212;2023-08-06T00:48:31;15.00;99.90
15105;DHT22;7653;48.994;9.212;2023-08-06T00:50:57;15.00;99.90
15105;DHT22;7653;48.994;9.212;2023-08-06T00:53:23;15.10;99.90
15105;DHT22;7653;48.994;9.212;2023-08-06T00:55:49;15.10;99.90
15105;DHT22;7653;48.994;9.212;2023-08-06T00:58:16;15.10;99.90
15105;DHT22;7653;48.994;9.212;2023-08-06T01:00:42;15.10;99.90
15105;DHT22;7653;48.994;9.212;2023-08-06T01:03:08;15.10;99.90
15105;DHT22;7653;48.994;9.212;2023-08-06T01:05:34;15.20;99.90
15105;DHT22;7653;48.994;9.212;2023-08-06T01:13:28;15.30;99.90
15105;DHT22;7653;48.994;9.212;2023-08-06T01:15:58;15.20;99.90
15105;DHT22;7653;48.994;9.212;2023-08-06T01:18:25;15.10;99.90
15105;DHT22;7653;48.994;9.212;2023-08-06T01:20:51;15.00;99.90
15105;DHT22;7653;48.994;9.212;2023-08-06T01:23:17;15.20;99.90
15105;DHT22;7653;48.994;9.212;2023-08-06T01:28:26;15.20;99.90
15105;DHT22;7653;48.994;9.212;2023-08-06T01:30:55;15.10;99.90
15105;DHT22;7653;48.994;9.212;2023-08-06T01:33:22;15.20;99.90
15105;DHT22;7653;48.994;9.212;2023-08-06T01:35:49;15.30;99.90
15105;DHT22;7653;48.994;9.212;2023-08-06T01:38:15;15.20;99.90
15105;DHT22;7653;48.994;9.212;2023-08-06T01:40:41;15.20;99.90
15105;DHT22;7653;48.994;9.212;2023-08-06T01:43:07;15.20;99.90
15105;DHT22;7653;48.994;9.212;2023-08-06T01:45:32;15.20;99.90
15105;DHT22;7653;48.994;9.212;2023-08-06T01:47:58;15.10;99.90
15105;DHT22;7653;48.994;9.212;2023-08-06T01:50:24;15.20;99.90
15105;DHT22;7653;48.994;9.212;2023-08-06T01:52:49;15.20;99.90
15105;DHT22;7653;48.994;9.212;2023-08-06T01:55:15;15.10;99.90
15105;DHT22;7653;48.994;9.212;2023-08-06T01:57:41;15.20;99.90
15105;DHT22;7653;48.994;9.212;2023-08-06T02:00:07;15.10;99.90
15105;DHT22;7653;48.994;9.212;2023-08-06T02:02:32;15.10;99.90
15105;DHT22;7653;48.994;9.212;2023-08-06T02:04:59;15.20;99.90
15105;DHT22;7653;48.994;9.212;2023-08-06T02:07:24;15.10;99.90
15105;DHT22;7653;48.994;9.212;2023-08-06T02:09:50;15.10;99.90
15105;DHT22;7653;48.994;9.212;2023-08-06T02:12:16;15.10;99.90
15105;DHT22;7653;48.994;9.212;2023-08-06T02:14:41;15.10;99.90
15105;DHT22;7653;48.994;9.212;2023-08-06T02:17:07;15.00;99.90
15105;DHT22;7653;48.994;9.212;2023-08-06T02:19:33;14.90;99.90
15105;DHT22;7653;48.994;9.212;2023-08-06T02:21:58;14.90;99.90
15105;DHT22;7653;48.994;9.212;2023-08-06T02:24:24;15.00;99.90
15105;DHT22;7653;48.994;9.212;2023-08-06T02:26:50;15.00;99.90
15105;DHT22;7653;48.994;9.212;2023-08-06T02:29:17;15.00;99.90
15105;DHT22;7653;48.994;9.212;2023-08-06T02:31:42;15.00;99.90
15105;DHT22;7653;48.994;9.212;2023-08-06T02:34:08;15.00;99.90
15105;DHT22;7653;48.994;9.212;2023-08-06T02:36:34;15.10;99.90
15105;DHT22;7653;48.994;9.212;2023-08-06T02:38:59;15.10;99.90
15105;DHT22;7653;48.994;9.212;2023-08-06T02:41:25;15.10;99.90
15105;DHT22;7653;48.994;9.212;2023-08-06T02:43:52;15.10;99.90
15105;DHT22;7653;48.994;9.212;2023-08-06T02:46:17;15.00;99.90
15105;DHT22;7653;48.994;9.212;2023-08-06T02:48:43;15.00;99.90
15105;DHT22;7653;48.994;9.212;2023-08-06T02:51:08;15.00;99.90
15105;DHT22;7653;48.994;9.212;2023-08-06T02:53:34;15.00;99.90
15105;DHT22;7653;48.994;9.212;2023-08-06T02:56:00;15.00;99.90
15105;DHT22;7653;48.994;9.212;2023-08-06T02:58:25;15.00;99.90
15105;DHT22;7653;48.994;9.212;2023-08-06T03:01:05;14.90;99.90
15105;DHT22;7653;48.994;9.212;2023-08-06T03:03:31;14.90;99.90
15105;DHT22;7653;48.994;9.212;2023-08-06T03:05:57;14.90;99.90
15105;DHT22;7653;48.994;9.212;2023-08-06T03:08:23;14.90;99.90
15105;DHT22;7653;48.994;9.212;2023-08-06T03:10:49;14.90;99.90
15105;DHT22;7653;48.994;9.212;2023-08-06T03:13:16;14.90;99.90
15105;DHT22;7653;48.994;9.212;2023-08-06T03:15:42;14.90;99.90
15105;DHT22;7653;48.994;9.212;2023-08-06T03:18:08;14.80;99.90
15105;DHT22;7653;48.994;9.212;2023-08-06T03:20:33;14.90;99.90
15105;DHT22;7653;48.994;9.212;2023-08-06T03:22:59;14.80;99.70
15105;DHT22;7653;48.994;9.212;2023-08-06T03:25:25;14.80;99.00
15105;DHT22;7653;48.994;9.212;2023-08-06T03:27:51;14.80;99.30
15105;DHT22;7653;48.994;9.212;2023-08-06T03:30:17;14.80;99.30
15105;DHT22;7653;48.994;9.212;2023-08-06T03:32:42;14.90;99.50
15105;DHT22;7653;48.994;9.212;2023-08-06T03:35:08;15.00;99.60
15105;DHT22;7653;48.994;9.212;2023-08-06T03:37:33;15.00;99.70
15105;DHT22;7653;48.994;9.212;2023-08-06T03:39:59;15.00;99.90
15105;DHT22;7653;48.994;9.212;2023-08-06T03:42:25;15.10;99.80
15105;DHT22;7653;48.994;9.212;2023-08-06T03:44:50;15.00;99.40
15105;DHT22;7653;48.994;9.212;2023-08-06T03:47:16;15.00;99.10
15105;DHT22;7653;48.994;9.212;2023-08-06T03:49:42;15.00;99.10
15105;DHT22;7653;48.994;9.212;2023-08-06T03:52:08;15.00;99.10
15105;DHT22;7653;48.994;9.212;2023-08-06T03:54:34;15.00;99.20
15105;DHT22;7653;48.994;9.212;2023-08-06T03:57:00;15.00;99.10
15105;DHT22;7653;48.994;9.212;2023-08-06T03:59:25;15.10;99.10
15105;DHT22;7653;48.994;9.212;2023-08-06T04:01:51;15.20;99.20
15105;DHT22;7653;48.994;9.212;2023-08-06T04:04:17;15.20;99.20
15105;DHT22;7653;48.994;9.212;2023-08-06T04:06:42;15.20;98.90
15105;DHT22;7653;48.994;9.212;2023-08-06T04:09:08;15.10;98.70
15105;DHT22;7653;48.994;9.212;2023-08-06T04:11:33;15.20;98.60
15105;DHT22;7653;48.994;9.212;2023-08-06T04:13:59;15.20;97.90
15105;DHT22;7653;48.994;9.212;2023-08-06T04:16:25;15.20;96.60
15105;DHT22;7653;48.994;9.212;2023-08-06T04:18:51;15.20;95.70
15105;DHT22;7653;48.994;9.212;2023-08-06T04:21:19;15.00;91.80
15105;DHT22;7653;48.994;9.212;2023-08-06T04:23:44;15.00;91.00
15105;DHT22;7653;48.994;9.212;2023-08-06T04:26:10;15.00;89.40
15105;DHT22;7653;48.994;9.212;2023-08-06T04:28:35;15.00;89.40
15105;DHT22;7653;48.994;9.212;2023-08-06T04:31:01;15.00;88.20
15105;DHT22;7653;48.994;9.212;2023-08-06T04:33:27;15.10;90.20
15105;DHT22;7653;48.994;9.212;2023-08-06T04:35:55;15.10;90.90
15105;DHT22;7653;48.994;9.212;2023-08-06T04:38:23;15.00;90.90
15105;DHT22;7653;48.994;9.212;2023-08-06T04:40:49;15.00;90.70
15105;DHT22;7653;48.994;9.212;2023-08-06T04:43:15;15.00;90.50
15105;DHT22;7653;48.994;9.212;2023-08-06T04:45:49;15.10;90.60
15105;DHT22;7653;48.994;9.212;2023-08-06T04:48:15;15.00;89.70
15105;DHT22;7653;48.994;9.212;2023-08-06T04:50:44;14.90;89.70
15105;DHT22;7653;48.994;9.212;2023-08-06T04:53:10;15.00;89.70
15105;DHT22;7653;48.994;9.212;2023-08-06T04:55:36;15.00;89.60
15105;DHT22;7653;48.994;9.212;2023-08-06T04:58:02;15.00;88.20
15105;DHT22;7653;48.994;9.212;2023-08-06T05:00:27;14.90;90.50
15105;DHT22;7653;48.994;9.212;2023-08-06T05:02:53;14.90;88.10
15105;DHT22;7653;48.994;9.212;2023-08-06T05:05:19;14.90;89.30
15105;DHT22;7653;48.994;9.212;2023-08-06T05:07:48;14.90;87.40
15105;DHT22;7653;48.994;9.212;2023-08-06T05:10:14;15.00;85.90
15105;DHT22;7653;48.994;9.212;2023-08-06T05:12:40;15.00;83.70
15105;DHT22;7653;48.994;9.212;2023-08-06T05:15:05;15.10;86.20
15105;DHT22;7653;48.994;9.212;2023-08-06T05:17:31;15.10;79.10
15105;DHT22;7653;48.994;9.212;2023-08-06T05:19:57;15.10;80.50
15105;DHT22;7653;48.994;9.212;2023-08-06T05:22:22;15.20;78.20
15105;DHT22;7653;48.994;9.212;2023-08-06T05:24:48;15.30;77.80
15105;DHT22;7653;48.994;9.212;2023-08-06T05:27:14;15.30;76.10
15105;DHT22;7653;48.994;9.212;2023-08-06T05:29:39;15.20;76.80
15105;DHT22;7653;48.994;9.212;2023-08-06T05:32:05;15.30;76.40
15105;DHT22;7653;48.994;9.212;2023-08-06T05:34:31;15.40;81.30
15105;DHT22;7653;48.994;9.212;2023-08-06T05:36:56;15.40;74.60
15105;DHT22;7653;48.994;9.212;2023-08-06T05:39:22;15.40;78.20
15105;DHT22;7653;48.994;9.212;2023-08-06T05:41:48;15.40;76.10
15105;DHT22;7653;48.994;9.212;2023-08-06T05:44:13;15.50;75.00
15105;DHT22;7653;48.994;9.212;2023-08-06T05:46:39;15.50;74.70
15105;DHT22;7653;48.994;9.212;2023-08-06T05:49:04;15.50;73.50
15105;DHT22;7653;48.994;9.212;2023-08-06T05:51:30;15.40;80.60
15105;DHT22;7653;48.994;9.212;2023-08-06T05:53:56;15.30;80.70
15105;DHT22;7653;48.994;9.212;2023-08-06T05:56:21;15.20;82.30
15105;DHT22;7653;48.994;9.212;2023-08-06T05:58:47;15.00;80.70
15105;DHT22;7653;48.994;9.212;2023-08-06T06:01:13;15.10;86.40
15105;DHT22;7653;48.994;9.212;2023-08-06T06:03:38;15.20;87.30
15105;DHT22;7653;48.994;9.212;2023-08-06T06:06:04;15.30;87.20
15105;DHT22;7653;48.994;9.212;2023-08-06T06:08:30;15.40;84.00
15105;DHT22;7653;48.994;9.212;2023-08-06T06:10:55;15.40;85.80
15105;DHT22;7653;48.994;9.212;2023-08-06T06:13:21;15.40;82.80
15105;DHT22;7653;48.994;9.212;2023-08-06T06:15:47;15.40;81.80
15105;DHT22;7653;48.994;9.212;2023-08-06T06:18:13;15.40;84.00
15105;DHT22;7653;48.994;9.212;2023-08-06T06:20:39;15.50;84.10
15105;DHT22;7653;48.994;9.212;2023-08-06T06:23:04;15.50;88.50
15105;DHT22;7653;48.994;9.212;2023-08-06T06:25:30;15.40;91.40
15105;DHT22;7653;48.994;9.212;2023-08-06T06:27:56;15.40;91.40
15105;DHT22;7653;48.994;9.212;2023-08-06T06:30:21;15.40;91.40
15105;DHT22;7653;48.994;9.212;2023-08-06T06:32:47;15.50;93.10
15105;DHT22;7653;48.994;9.212;2023-08-06T06:35:12;15.60;93.50
15105;DHT22;7653;48.994;9.212;2023-08-06T06:37:38;15.70;93.80
15105;DHT22;7653;48.994;9.212;2023-08-06T06:40:04;15.80;92.90
15105;DHT22;7653;48.994;9.212;2023-08-06T06:42:30;15.80;90.80
15105;DHT22;7653;48.994;9.212;2023-08-06T06:44:55;15.80;87.40
15105;DHT22;7653;48.994;9.212;2023-08-06T06:47:21;15.70;84.30
15105;DHT22;7653;48.994;9.212;2023-08-06T06:49:47;15.70;84.30
15105;DHT22;7653;48.994;9.212;2023-08-06T06:52:12;15.50;86.20
15105;DHT22;7653;48.994;9.212;2023-08-06T06:54:38;15.50;88.40
15105;DHT22;7653;48.994;9.212;2023-08-06T06:57:04;15.60;90.30
15105;DHT22;7653;48.994;9.212;2023-08-06T06:59:31;15.60;90.30
15105;DHT22;7653;48.994;9.212;2023-08-06T07:01:56;15.70;90.80
15105;DHT22;7653;48.994;9.212;2023-08-06T07:04:22;15.70;91.00
15105;DHT22;7653;48.994;9.212;2023-08-06T07:06:48;15.60;89.00
15105;DHT22;7653;48.994;9.212;2023-08-06T07:09:13;15.50;88.00
15105;DHT22;7653;48.994;9.212;2023-08-06T07:11:39;15.60;90.90
15105;DHT22;7653;48.994;9.212;2023-08-06T07:14:04;15.60;91.40
15105;DHT22;7653;48.994;9.212;2023-08-06T07:16:30;15.60;91.40
15105;DHT22;7653;48.994;9.212;2023-08-06T07:18:56;15.70;88.60
15105;DHT22;7653;48.994;9.212;2023-08-06T07:21:21;15.70;90.30
15105;DHT22;7653;48.994;9.212;2023-08-06T07:23:47;15.60;85.20
15105;DHT22;7653;48.994;9.212;2023-08-06T07:26:15;15.60;88.90
15105;DHT22;7653;48.994;9.212;2023-08-06T07:28:41;15.60;88.50
15105;DHT22;7653;48.994;9.212;2023-08-06T07:31:07;15.70;87.20
15105;DHT22;7653;48.994;9.212;2023-08-06T07:33:33;15.80;84.40
15105;DHT22;7653;48.994;9.212;2023-08-06T07:35:58;15.80;83.40
15105;DHT22;7653;48.994;9.212;2023-08-06T07:38:24;15.80;81.40
15105;DHT22;7653;48.994;9.212;2023-08-06T07:40:50;15.80;81.80
15105;DHT22;7653;48.994;9.212;2023-08-06T07:43:15;15.90;84.40
15105;DHT22;7653;48.994;9.212;2023-08-06T07:45:41;15.80;82.40
15105;DHT22;7653;48.994;9.212;2023-08-06T07:48:07;15.90;81.80
15105;DHT22;7653;48.994;9.212;2023-08-06T07:50:32;16.00;84.50
15105;DHT22;7653;48.994;9.212;2023-08-06T07:52:58;16.10;84.60
15105;DHT22;7653;48.994;9.212;2023-08-06T07:55:23;16.10;80.50
15105;DHT22;7653;48.994;9.212;2023-08-06T07:57:49;15.90;84.40
15105;DHT22;7653;48.994;9.212;2023-08-06T08:00:15;15.80;84.90
15105;DHT22;7653;48.994;9.212;2023-08-06T08:02:41;15.70;83.30
15105;DHT22;7653;48.994;9.212;2023-08-06T08:05:15;15.70;84.30
15105;DHT22;7653;48.994;9.212;2023-08-06T08:07:41;15.80;81.50
15105;DHT22;7653;48.994;9.212;2023-08-06T08:10:07;15.90;80.50
15105;DHT22;7653;48.994;9.212;2023-08-06T08:12:33;15.90;82.10
15105;DHT22;7653;48.994;9.212;2023-08-06T08:14:58;16.00;80.10
15105;DHT22;7653;48.994;9.212;2023-08-06T08:17:24;16.00;83.00
15105;DHT22;7653;48.994;9.212;2023-08-06T08:19:50;16.00;81.20
15105;DHT22;7653;48.994;9.212;2023-08-06T08:22:15;16.00;76.90
15105;DHT22;7653;48.994;9.212;2023-08-06T08:24:41;16.20;73.40
15105;DHT22;7653;48.994;9.212;2023-08-06T08:27:06;16.30;73.00
15105;DHT22;7653;48.994;9.212;2023-08-06T08:29:32;16.40;75.70
15105;DHT22;7653;48.994;9.212;2023-08-06T08:31:58;16.40;74.10
15105;DHT22;7653;48.994;9.212;2023-08-06T08:34:23;16.50;75.70
15105;DHT22;7653;48.994;9.212;2023-08-06T08:36:49;16.60;69.30
15105;DHT22;7653;48.994;9.212;2023-08-06T08:39:15;16.50;69.60
15105;DHT22;7653;48.994;9.212;2023-08-06T08:41:42;16.50;68.80
15105;DHT22;7653;48.994;9.212;2023-08-06T08:44:11;16.50;72.80
15105;DHT22;7653;48.994;9.212;2023-08-06T08:46:38;16.60;71.00
15105;DHT22;7653;48.994;9.212;2023-08-06T08:49:06;16.50;68.00
15105;DHT22;7653;48.994;9.212;2023-08-06T08:51:33;16.50;63.20
15105;DHT22;7653;48.994;9.212;2023-08-06T08:53:59;16.50;65.00
15105;DHT22;7653;48.994;9.212;2023-08-06T08:56:27;16.50;61.10
15105;DHT22;7653;48.994;9.212;2023-08-06T08:58:53;16.60;60.70
15105;DHT22;7653;48.994;9.212;2023-08-06T09:01:21;16.80;61.00
15105;DHT22;7653;48.994;9.212;2023-08-06T09:03:48;16.70;57.80
15105;DHT22;7653;48.994;9.212;2023-08-06T09:06:14;16.50;64.00
15105;DHT22;7653;48.994;9.212;2023-08-06T09:11:44;16.40;62.30
15105;DHT22;7653;48.994;9.212;2023-08-06T09:14:11;16.20;68.60
15105;DHT22;7653;48.994;9.212;2023-08-06T09:16:37;16.20;70.00
15105;DHT22;7653;48.994;9.212;2023-08-06T09:19:13;16.30;70.20
15105;DHT22;7653;48.994;9.212;2023-08-06T09:21:41;16.60;72.00
15105;DHT22;7653;48.994;9.212;2023-08-06T09:24:08;16.60;69.90
15105;DHT22;7653;48.994;9.212;2023-08-06T09:26:35;16.40;68.90
15105;DHT22;7653;48.994;9.212;2023-08-06T09:29:01;16.30;67.60
15105;DHT22;7653;48.994;9.212;2023-08-06T09:36:54;16.60;63.90
15105;DHT22;7653;48.994;9.212;2023-08-06T09:39:21;16.70;63.20
15105;DHT22;7653;48.994;9.212;2023-08-06T09:41:48;16.70;64.20
15105;DHT22;7653;48.994;9.212;2023-08-06T09:44:18;16.60;62.90
15105;DHT22;7653;48.994;9.212;2023-08-06T09:46:48;16.50;66.00
15105;DHT22;7653;48.994;9.212;2023-08-06T09:49:15;16.60;64.10
15105;DHT22;7653;48.994;9.212;2023-08-06T09:51:41;16.80;63.10
15105;DHT22;7653;48.994;9.212;2023-08-06T09:54:08;16.50;61.50
15105;DHT22;7653;48.994;9.212;2023-08-06T09:56:37;16.50;63.20
15105;DHT22;7653;48.994;9.212;2023-08-06T09:59:06;16.60;63.40
15105;DHT22;7653;48.994;9.212;2023-08-06T10:01:33;16.50;60.20
15105;DHT22;7653;48.994;9.212;2023-08-06T10:04:01;16.60;61.20
15105;DHT22;7653;48.994;9.212;2023-08-06T10:06:28;16.80;57.70
15105;DHT22;7653;48.994;9.212;2023-08-06T10:08:54;16.60;59.40
15105;DHT22;7653;48.994;9.212;2023-08-06T10:11:22;16.50;60.60
15105;DHT22;7653;48.994;9.212;2023-08-06T10:13:51;16.60;62.40
15105;DHT22;7653;48.994;9.212;2023-08-06T10:16:18;16.50;62.30
15105;DHT22;7653;48.994;9.212;2023-08-06T10:18:45;16.30;64.10
15105;DHT22;7653;48.994;9.212;2023-08-06T10:21:12;16.30;65.80
15105;DHT22;7653;48.994;9.212;2023-08-06T10:23:40;16.20;65.70
15105;DHT22;7653;48.994;9.212;2023-08-06T10:26:07;16.20;70.00
15105;DHT22;7653;48.994;9.212;2023-08-06T10:28:39;16.20;68.80
15105;DHT22;7653;48.994;9.212;2023-08-06T10:31:05;16.40;68.90
15105;DHT22;7653;48.994;9.212;2023-08-06T10:33:44;16.30;66.50
15105;DHT22;7653;48.994;9.212;2023-08-06T10:36:11;16.30;66.10
15105;DHT22;7653;48.994;9.212;2023-08-06T10:38:57;16.30;67.40
15105;DHT22;7653;48.994;9.212;2023-08-06T10:41:28;16.20;65.40
15105;DHT22;7653;48.994;9.212;2023-08-06T10:44:06;16.10;66.80
15105;DHT22;7653;48.994;9.212;2023-08-06T10:46:35;16.20;63.10
15105;DHT22;7653;48.994;9.212;2023-08-06T10:49:01;16.30;63.70
15105;DHT22;7653;48.994;9.212;2023-08-06T10:51:27;16.30;60.90
15105;DHT22;7653;48.994;9.212;2023-08-06T10:53:53;16.20;60.80
15105;DHT22;7653;48.994;9.212;2023-08-06T10:56:23;16.10;61.80
15105;DHT22;7653;48.994;9.212;2023-08-06T10:58:50;16.30;63.10
15105;DHT22;7653;48.994;9.212;2023-08-06T11:01:18;16.20;62.10
15105;DHT22;7653;48.994;9.212;2023-08-06T11:03:45;16.20;64.90
15105;DHT22;7653;48.994;9.212;2023-08-06T11:06:11;16.10;64.50
15105;DHT22;7653;48.994;9.212;2023-08-06T11:08:47;16.00;65.50
15105;DHT22;7653;48.994;9.212;2023-08-06T11:11:15;15.90;65.60
15105;DHT22;7653;48.994;9.212;2023-08-06T11:16:08;15.70;65.20
15105;DHT22;7653;48.994;9.212;2023-08-06T11:18:34;15.80;68.10
15105;DHT22;7653;48.994;9.212;2023-08-06T11:21:00;15.80;66.90
15105;DHT22;7653;48.994;9.212;2023-08-06T11:23:30;15.70;67.80
15105;DHT22;7653;48.994;9.212;2023-08-06T11:25:58;15.70;68.00
15105;DHT22;7653;48.994;9.212;2023-08-06T11:28:25;15.90;68.80
15105;DHT22;7653;48.994;9.212;2023-08-06T11:30:51;15.70;68.50
15105;DHT22;7653;48.994;9.212;2023-08-06T11:33:24;15.60;70.90
15105;DHT22;7653;48.994;9.212;2023-08-06T11:35:51;15.70;71.50
15105;DHT22;7653;48.994;9.212;2023-08-06T11:38:17;15.40;74.60
15105;DHT22;7653;48.994;9.212;2023-08-06T11:40:47;15.40;76.80
15105;DHT22;7653;48.994;9.212;2023-08-06T11:43:13;15.40;75.80
15105;DHT22;7653;48.994;9.212;2023-08-06T11:45:39;15.30;80.20
15105;DHT22;7653;48.994;9.212;2023-08-06T11:48:07;15.30;77.40
15105;DHT22;7653;48.994;9.212;2023-08-06T11:50:37;15.30;77.60
15105;DHT22;7653;48.994;9.212;2023-08-06T11:53:06;15.20;79.10
15105;DHT22;7653;48.994;9.212;2023-08-06T11:55:32;15.20;83.00
15105;DHT22;7653;48.994;9.212;2023-08-06T11:57:59;15.00;84.70
15105;DHT22;7653;48.994;9.212;2023-08-06T12:00:29;14.80;87.10
15105;DHT22;7653;48.994;9.212;2023-08-06T12:02:54;14.80;89.20
15105;DHT22;7653;48.994;9.212;2023-08-06T12:05:22;14.80;90.20
15105;DHT22;7653;48.994;9.212;2023-08-06T12:07:59;14.70;90.00
15105;DHT22;7653;48.994;9.212;2023-08-06T12:10:26;14.50;91.00
15105;DHT22;7653;48.994;9.212;2023-08-06T12:12:52;14.50;92.40
15105;DHT22;7653;48.994;9.212;2023-08-06T12:15:18;14.50;91.90
15105;DHT22;7653;48.994;9.212;2023-08-06T12:17:44;14.40;93.30
15105;DHT22;7653;48.994;9.212;2023-08-06T12:20:10;14.10;91.60
15105;DHT22;7653;48.994;9.212;2023-08-06T12:22:37;14.20;93.70
15105;DHT22;7653;48.994;9.212;2023-08-06T12:25:09;14.10;92.70
15105;DHT22;7653;48.994;9.212;2023-08-06T12:27:38;14.20;94.20
15105;DHT22;7653;48.994;9.212;2023-08-06T12:30:05;14.20;93.70
15105;DHT22;7653;48.994;9.212;2023-08-06T12:32:31;14.30;94.90
15105;DHT22;7653;48.994;9.212;2023-08-06T12:34:57;14.20;94.00
15105;DHT22;7653;48.994;9.212;2023-08-06T12:37:24;14.20;93.40
15105;DHT22;7653;48.994;9.212;2023-08-06T12:39:50;14.20;94.40
15105;DHT22;7653;48.994;9.212;2023-08-06T12:42:16;14.30;94.90
15105;DHT22;7653;48.994;9.212;2023-08-06T12:44:42;14.30;94.90
15105;DHT22;7653;48.994;9.212;2023-08-06T12:47:08;14.20;94.90
15105;DHT22;7653;48.994;9.212;2023-08-06T12:49:34;14.30;94.90
15105;DHT22;7653;48.994;9.212;2023-08-06T12:52:00;14.30;92.40
15105;DHT22;7653;48.994;9.212;2023-08-06T12:54:27;14.40;93.20
15105;DHT22;7653;48.994;9.212;2023-08-06T12:56:53;14.40;92.30
15105;DHT22;7653;48.994;9.212;2023-08-06T12:59:18;14.40;90.90
15105;DHT22;7653;48.994;9.212;2023-08-06T13:01:45;14.50;90.70
15105;DHT22;7653;48.994;9.212;2023-08-06T13:04:12;14.50;88.40
15105;DHT22;7653;48.994;9.212;2023-08-06T13:06:38;14.60;90.00
15105;DHT22;7653;48.994;9.212;2023-08-06T13:09:09;14.70;87.90
15105;DHT22;7653;48.994;9.212;2023-08-06T13:11:36;14.80;89.80
15105;DHT22;7653;48.994;9.212;2023-08-06T13:14:10;15.00;88.10
15105;DHT22;7653;48.994;9.212;2023-08-06T13:16:41;15.10;83.70
15105;DHT22;7653;48.994;9.212;2023-08-06T13:19:07;15.30;86.60
15105;DHT22;7653;48.994;9.212;2023-08-06T13:24:15;15.20;83.80
15105;DHT22;7653;48.994;9.212;2023-08-06T13:26:41;14.90;81.60
15105;DHT22;7653;48.994;9.212;2023-08-06T13:29:07;15.00;89.90
15105;DHT22;7653;48.994;9.212;2023-08-06T13:31:32;15.10;87.30
15105;DHT22;7653;48.994;9.212;2023-08-06T13:33:58;15.00;85.60
15105;DHT22;7653;48.994;9.212;2023-08-06T13:36:27;14.90;91.10
15105;DHT22;7653;48.994;9.212;2023-08-06T13:38:53;14.80;91.10
15105;DHT22;7653;48.994;9.212;2023-08-06T13:41:19;14.70;91.50
15105;DHT22;7653;48.994;9.212;2023-08-06T13:43:45;14.70;94.30
15105;DHT22;7653;48.994;9.212;2023-08-06T13:46:11;14.50;93.70
15105;DHT22;7653;48.994;9.212;2023-08-06T13:48:46;14.50;93.90
15105;DHT22;7653;48.994;9.212;2023-08-06T13:51:12;14.60;96.50
15105;DHT22;7653;48.994;9.212;2023-08-06T13:53:38;14.60;93.30
15105;DHT22;7653;48.994;9.212;2023-08-06T13:56:05;14.70;94.10
15105;DHT22;7653;48.994;9.212;2023-08-06T13:58:31;15.00;95.20
15105;DHT22;7653;48.994;9.212;2023-08-06T14:00:57;15.30;93.90
15105;DHT22;7653;48.994;9.212;2023-08-06T14:03:23;15.30;90.40
15105;DHT22;7653;48.994;9.212;2023-08-06T14:05:48;15.30;89.00
15105;DHT22;7653;48.994;9.212;2023-08-06T14:08:15;15.30;88.60
15105;DHT22;7653;48.994;9.212;2023-08-06T14:10:44;15.50;90.10
15105;DHT22;7653;48.994;9.212;2023-08-06T14:13:09;15.50;91.40
15105;DHT22;7653;48.994;9.212;2023-08-06T14:15:36;15.50;89.00
15105;DHT22;7653;48.994;9.212;2023-08-06T14:18:02;15.40;85.60
15105;DHT22;7653;48.994;9.212;2023-08-06T14:20:28;15.40;87.30
15105;DHT22;7653;48.994;9.212;2023-08-06T14:22:53;15.30;83.80
15105;DHT22;7653;48.994;9.212;2023-08-06T14:25:19;15.30;78.10
15105;DHT22;7653;48.994;9.212;2023-08-06T14:27:45;15.20;79.30
15105;DHT22;7653;48.994;9.212;2023-08-06T14:30:11;15.10;74.30
15105;DHT22;7653;48.994;9.212;2023-08-06T14:32:37;15.10;79.80
15105;DHT22;7653;48.994;9.212;2023-08-06T14:35:03;15.20;78.10
15105;DHT22;7653;48.994;9.212;2023-08-06T14:37:28;15.30;78.90
15105;DHT22;7653;48.994;9.212;2023-08-06T14:39:54;15.20;77.40
15105;DHT22;7653;48.994;9.212;2023-08-06T14:42:20;15.20;79.70
15105;DHT22;7653;48.994;9.212;2023-08-06T14:44:46;15.30;85.30
15105;DHT22;7653;48.994;9.212;2023-08-06T14:47:11;15.20;83.80
15105;DHT22;7653;48.994;9.212;2023-08-06T14:49:38;15.20;85.00
15105;DHT22;7653;48.994;9.212;2023-08-06T14:52:04;15.10;86.50
15105;DHT22;7653;48.994;9.212;2023-08-06T14:54:30;15.10;87.80
15105;DHT22;7653;48.994;9.212;2023-08-06T14:56:56;15.00;84.50
15105;DHT22;7653;48.994;9.212;2023-08-06T14:59:22;14.80;88.30
15105;DHT22;7653;48.994;9.212;2023-08-06T15:01:48;14.80;90.40
15105;DHT22;7653;48.994;9.212;2023-08-06T15:04:13;14.90;89.50
15105;DHT22;7653;48.994;9.212;2023-08-06T15:06:39;15.00;90.60
15105;DHT22;7653;48.994;9.212;2023-08-06T15:09:04;15.00;87.00
15105;DHT22;7653;48.994;9.212;2023-08-06T15:11:30;14.80;86.80
15105;DHT22;7653;48.994;9.212;2023-08-06T15:13:56;14.90;87.40
15105;DHT22;7653;48.994;9.212;2023-08-06T15:16:21;15.00;88.30
15105;DHT22;7653;48.994;9.212;2023-08-06T15:18:47;15.10;79.00
15105;DHT22;7653;48.994;9.212;2023-08-06T15:21:14;15.10;83.30
15105;DHT22;7653;48.994;9.212;2023-08-06T15:23:39;15.10;80.30
15105;DHT22;7653;48.994;9.212;2023-08-06T15:26:05;15.20;81.70
15105;DHT22;7653;48.994;9.212;2023-08-06T15:28:31;15.10;78.70
15105;DHT22;7653;48.994;9.212;2023-08-06T15:30:56;15.10;83.70
15105;DHT22;7653;48.994;9.212;2023-08-06T15:33:22;15.10;82.40
15105;DHT22;7653;48.994;9.212;2023-08-06T15:35:51;15.10;83.70
15105;DHT22;7653;48.994;9.212;2023-08-06T15:38:16;15.10;85.30
15105;DHT22;7653;48.994;9.212;2023-08-06T15:40:42;15.00;80.80
15105;DHT22;7653;48.994;9.212;2023-08-06T15:43:10;15.00;79.90
15105;DHT22;7653;48.994;9.212;2023-08-06T15:45:36;15.00;82.90
15105;DHT22;7653;48.994;9.212;2023-08-06T15:48:01;15.10;83.50
15105;DHT22;7653;48.994;9.212;2023-08-06T15:50:27;15.00;78.90
15105;DHT22;7653;48.994;9.212;2023-08-06T15:52:53;15.00;83.60
15105;DHT22;7653;48.994;9.212;2023-08-06T15:55:18;14.80;79.00
15105;DHT22;7653;48.994;9.212;2023-08-06T15:57:48;14.80;83.40
15105;DHT22;7653;48.994;9.212;2023-08-06T16:00:13;14.70;80.50
15105;DHT22;7653;48.994;9.212;2023-08-06T16:02:39;14.60;81.70